Terminal Aerodrome Forecast
Issued by NWS

Home | Current Version | Previous Version | Text Only | Print | Product List | Glossary On
Versions: 1 2 3 4 5 6 7 8 9 10 11 12 13 14 15 16
961
FTUS44 KCRP 071726
TAFALI
TAF
KALI 071726Z 0718/0818 03007KT P6SM BKN008
      TEMPO 0718/0722 6SM -DZ BR BKN005
     FM080500 03007KT P6SM VCSH BKN005
     FM080900 02013G22KT 6SM BR VCSH BKN012
     FM081300 02020G30KT P6SM BKN015=

USA.gov is the U.S. government's official web portal to all federal, state and local government web resources and services.